Matthieu Verva

Matthieu Verva

Statistiques 2019

  • Courses courues : 404
  • Nb de victoires : 32
  • Nb de places : 88
  • Écart gagnant : 2
  • Réussite à la gagne : 8%
  • Réussite à la place : 22%
Musique : Da 0a 1a Da Da 2a 0a 8a 0a 1a 3a 8a Da 4a 2a 2a 9a 4a
DateRangCatégorieAlloc.Dist.HippodromeChevalRed. KmSpé.
23/10/19 D Trot 29 000€ 2 150m Enghien Soisy Griotte Syga Attelé
18/10/19 0 Trot 30 000€ 2 400m Amiens Absolut Perfect Attelé
18/10/19 1 Trot 17 000€ 2 400m Amiens Darwin la Mesange 1'13"8 Attelé
18/10/19 D Trot 17 000€ 2 400m Amiens Everlasting Love Attelé
18/10/19 D Trot 17 000€ 2 400m Amiens Fennec Jego Attelé
18/10/19 2 Trot 17 000€ 2 400m Amiens Fashion Mencourt 1'16"1 Attelé
18/10/19 0 Trot 17 000€ 2 400m Amiens Gwen Pasmarick Attelé
17/10/19 8 Trot 33 000€ 2 875m Enghien Soisy Grace du Kastel 1'17"4 Attelé lire

Une des animatrices, a marqué le pas dans la phase finale.

17/10/19 0 Trot 33 000€ 2 150m Enghien Soisy Fakir du Nord Attelé lire

N'a joué aucun rôle utile.

13/10/19 1 Trot 13 000€ 2 550m Reims Gorgones Emess 1'16"6 Attelé
13/10/19 3 Trot 13 000€ 2 550m Reims Gohaki 1'16"4 Attelé
13/10/19 8 Trot 15 000€ 2 550m Reims Feel So Good 1'14"7 Attelé
13/10/19 D Trot 15 000€ 2 550m Reims Fortune Attelé
13/10/19 4 Trot 17 000€ 2 550m Reims Eclair des Pres 1'14"5 Attelé
13/10/19 2 Trot 17 000€ 2 575m Reims Easton Of My Life 1'13"6 Attelé
13/10/19 2 Trot 23 000€ 2 550m Reims J.S. Apollo 1'14"9 Attelé
12/10/19 9 Trot 33 000€ 2 775m Cabourg Bonheur de Nay 1'14"4 Attelé
12/10/19 4 Trot 22 000€ 2 050m Cabourg Egerie Imperiale 1'13"4 Attelé
10/10/19 5 Trot 29 000€ 2 875m Enghien Soisy Flash du Lerre 1'16"0 Attelé lire

Longtemps en retrait, a conclu fort honorablement.

10/10/19 1 Trot 43 000€ 2 875m Enghien Soisy Darquana du Nord 1'15"0 Attelé lire

Principale animatrice, a su se montrer la plus forte pour finir.

09/10/19 4 Trot 38 000€ 2 875m Enghien Soisy Ferlaine 1'16"2 Attelé lire

Une des animatrices, a bien tenu sa partie jusqu'au bout.

08/10/19 D Trot 33 000€ 2 850m Vincennes Getehi du Noyer Attelé lire

Longtemps en queue de peloton, a été sanctionné à l'entrée du tournant final.

07/10/19 D Trot 13 000€ 2 825m Le Croise Laroche Ganador Attelé
07/10/19 0 Trot 17 000€ 2 825m Le Croise Laroche Doria Attelé
07/10/19 D Trot 33 000€ 2 150m Enghien Soisy Fidji des Thuyas Attelé lire

A rapidement été sanctionnée.

07/10/19 7 Trot 38 000€ 2 150m Enghien Soisy Gentilove Job 1'15"4 Attelé lire

Longtemps en queue de peloton, a conclu convenablement.

06/10/19 D Trot 15 000€ 2 575m Reims Easy Rider Zen Attelé
06/10/19 D Trot 15 000€ 2 550m Reims Guinness Attelé
06/10/19 6 Trot 13 000€ 2 550m Reims Flash d'Ocque 1'17"3 Attelé
06/10/19 8 Trot 13 000€ 2 550m Reims Filae des Salines 1'18"4 Attelé
06/10/19 0 Trot 23 000€ 2 550m Reims Avenir Classique Attelé
06/10/19 D Trot 23 000€ 2 550m Reims Gentleman du Mirel Attelé
06/10/19 2 Trot 15 000€ 2 575m Reims Emeraude d'Idef 1'16"9 Attelé
06/10/19 D Trot 11 000€ 2 550m Reims Heritiere du Ganep Attelé
05/10/19 5 Trot 17 000€ 2 900m Amiens Eristoff Gold 1'16"9 Attelé
05/10/19 7 Trot 26 000€ 2 400m Amiens Bella du Vivier 1'16"0 Attelé
04/10/19 D Trot 33 000€ 2 200m Vincennes Grace du Kastel Attelé lire

Rapidement à la pointe du combat, s'est désunie dans le tournant final en marquant le pas.

04/10/19 4 Trot 37 000€ 2 850m Vincennes Dune de la Lune 1'15"5 Attelé lire

Après avoir figuré au sein du peloton, a bien conclu pour arracher la quatrième place.

01/10/19 2 Trot 33 000€ 2 700m Vincennes Ferlaine 1'14"3 Attelé lire

Tout de suite à la pointe du combat, a échoué de fort peu pour la victoire.

29/09/19 3 Trot 12 000€ 2 625m Saint Omer First du Fosse 1'21"4 Attelé
29/09/19 7 Trot 12 000€ 2 625m Saint Omer First du Rouilly 1'23"6 Attelé
29/09/19 6 Trot 12 000€ 2 625m Saint Omer Gloria d'Arbaz 1'27"0 Attelé
29/09/19 8 Trot 12 000€ 2 625m Saint Omer Fee de Florange 1'21"8 Attelé
29/09/19 4 Trot 12 000€ 2 625m Saint Omer Florette des Neuzy 1'23"1 Attelé
29/09/19 D Trot 12 000€ 2 625m Saint Omer Galopin Henjo Attelé
28/09/19 6 Trot 18 000€ 2 700m Le Croise Laroche Fidzi Rose 1'17"5 Attelé
28/09/19 6 Trot 18 000€ 2 700m Le Croise Laroche Gohaki 1'18"7 Attelé
28/09/19 D Trot 18 000€ 2 700m Le Croise Laroche Gorgones Emess Attelé
27/09/19 4 Trot 42 000€ 2 850m Vincennes Domaine de l'If 1'13"9 Attelé lire

Après avoir figuré au sein du peloton, a conclu de bonne manière.

26/09/19 D Trot 18 000€ 2 150m Enghien Soisy El Bellouet Attelé lire

A rapidement été sanctionné.